This is the latest recevied weather packets stored in our database for station/object DB2AG-13. If no packets are shown the sender has not sent any weather packets the latest 10 day(s).
| Time | Temp. | Humidity | Pressure | Rain* | Wind** | Luminosity | Snow |
|---|---|---|---|---|---|---|---|
| 1787415095 | 18.89° C | 45% | 1019.3 hPa | - | - | - | - |
| 1787414560 | 20° C | 42% | 1019.3 hPa | - | - | - | - |
| 1787414026 | 20.56° C | 41% | 1019 hPa | - | - | - | - |
| 1787413490 | 21.67° C | 40% | 1019.1 hPa | - | - | - | - |
| 1787412417 | 21.11° C | 43% | 1018.9 hPa | - | - | - | - |
| 1787411352 | 21.11° C | 42% | 1018.8 hPa | - | - | - | - |
| 1787410813 | 21.67° C | 43% | 1018.8 hPa | - | - | - | - |
| 1787410275 | 21.67° C | 45% | 1018.9 hPa | - | - | - | - |
| 1787409740 | 21.11° C | 46% | 1018.9 hPa | - | - | - | - |
| 1787409201 | 20.56° C | 48% | 1018.9 hPa | - | - | - | - |
| 1787408668 | 19.44° C | 50% | 1018.9 hPa | - | - | - | - |
| 1787408137 | 18.33° C | 52% | 1019 hPa | - | - | - | - |
| 1787407592 | 18.33° C | 51% | 1018.9 hPa | - | - | - | - |
| 1787407051 | 18.33° C | 50% | 1018.8 hPa | - | - | - | - |
| 1787406508 | 18.89° C | 49% | 1018.5 hPa | - | - | - | - |
| 1787405968 | 19.44° C | 46% | 1018.4 hPa | - | - | - | - |
| 1787405429 | 20.56° C | 43% | 1018.1 hPa | - | - | - | - |
| 1787404893 | 21.11° C | 43% | 1018.1 hPa | - | - | - | - |
| 1787404350 | 21.67° C | 45% | 1018 hPa | - | - | - | - |
| 1787403812 | 20.56° C | 49% | 1018.1 hPa | - | - | - | - |
| 1787403274 | 18.89° C | 55% | 1018.2 hPa | - | - | - | - |
| 1787402729 | 17.78° C | 54% | 1018.2 hPa | - | - | - | - |
| 1787402186 | 18.33° C | 51% | 1018.2 hPa | - | - | - | - |
| 1787401643 | 19.44° C | 48% | 1018.1 hPa | - | - | - | - |
| 1787401100 | 20° C | 48% | 1017.9 hPa | - | - | - | - |
* Rain since midnight (hover to see other rain measurements)
** Current wind speed in m/s (hover to see current wind gust speed)